createdAt,value
2023-04-10T00:00:57.967Z,102596.48
2023-04-10T00:02:01.024Z,102598.64
2023-04-10T00:03:04.351Z,102596.19
2023-04-10T00:04:07.519Z,102598.09
2023-04-10T00:05:11.546Z,102594.67
2023-04-10T00:06:14.549Z,102590.55
2023-04-10T00:07:17.526Z,102593.64
2023-04-10T00:08:23.152Z,102588.16
2023-04-10T00:09:26.610Z,102588.63
2023-04-10T00:10:31.687Z,102591.20
2023-04-10T00:11:34.605Z,102590.46
2023-04-10T00:12:40.235Z,102590.84
2023-04-10T00:13:43.582Z,102592.17
2023-04-10T00:14:46.472Z,102596.42
2023-04-10T00:15:50.260Z,102594.56
2023-04-10T00:16:53.210Z,102595.13
2023-04-10T00:17:56.267Z,102593.27
2023-04-10T00:18:59.097Z,102594.43
2023-04-10T00:20:02.342Z,102593.44
2023-04-10T00:21:06.116Z,102595.35
2023-04-10T00:22:08.916Z,102595.07
2023-04-10T00:23:11.699Z,102591.88
2023-04-10T00:24:14.589Z,102592.02
2023-04-10T00:25:17.624Z,102590.41
2023-04-10T00:26:21.154Z,102586.72
2023-04-10T00:27:24.229Z,102590.18
2023-04-10T00:28:27.423Z,102588.09
2023-04-10T00:29:30.405Z,102586.33
2023-04-10T00:30:33.533Z,102585.07
2023-04-10T00:31:36.495Z,102582.08
2023-04-10T00:32:39.395Z,102582.73
2023-04-10T00:33:42.559Z,102578.15
2023-04-10T00:34:45.456Z,102581.81
2023-04-10T00:35:48.407Z,102579.09
2023-04-10T00:36:51.527Z,102580.70
2023-04-10T00:37:56.432Z,102582.25
2023-04-10T00:38:59.637Z,102579.39
2023-04-10T00:40:03.209Z,102581.23
2023-04-10T00:41:06.838Z,102583.73
2023-04-10T00:42:10.097Z,102582.59
2023-04-10T00:43:13.073Z,102582.73
2023-04-10T00:44:16.264Z,102583.96
2023-04-10T00:45:19.345Z,102582.13
2023-04-10T00:46:22.835Z,102581.77
2023-04-10T00:47:27.506Z,102583.58
2023-04-10T00:48:30.560Z,102580.61
2023-04-10T00:49:34.661Z,102582.04
2023-04-10T00:50:37.899Z,102582.09
2023-04-10T00:51:41.845Z,102581.14
2023-04-10T00:52:44.726Z,102583.09
2023-04-10T00:53:48.398Z,102581.05
2023-04-10T00:54:51.254Z,102581.45
2023-04-10T00:55:56.041Z,102580.90
2023-04-10T00:56:59.803Z,102582.05
2023-04-10T00:58:02.631Z,102576.83
2023-04-10T00:59:07.198Z,102580.23
2023-04-10T01:00:10.903Z,102579.41
2023-04-10T01:01:14.375Z,102577.70
2023-04-10T01:02:17.328Z,102578.11
2023-04-10T01:03:21.860Z,102579.70
2023-04-10T01:04:28.927Z,102576.27
2023-04-10T01:05:56.914Z,102577.73
2023-04-10T01:07:10.022Z,102581.89
2023-04-10T01:08:33.566Z,102580.78
2023-04-10T01:09:48.906Z,102580.08
2023-04-10T01:11:00.753Z,102578.68
2023-04-10T01:12:18.845Z,102577.46
2023-04-10T01:13:36.054Z,102578.39
2023-04-10T01:14:42.099Z,102579.33
2023-04-10T01:16:02.983Z,102579.29
2023-04-10T01:17:12.026Z,102578.20
2023-04-10T01:18:22.935Z,102576.41
2023-04-10T01:19:38.358Z,102578.05
2023-04-10T01:20:42.588Z,102577.02
2023-04-10T01:21:46.172Z,102575.12
2023-04-10T01:23:03.058Z,102577.45
2023-04-10T01:24:18.902Z,102578.80
2023-04-10T01:25:46.470Z,102578.20
2023-04-10T01:27:11.246Z,102580.45
2023-04-10T01:28:30.465Z,102577.55
2023-04-10T01:29:36.262Z,102576.40
2023-04-10T01:32:18.367Z,102580.39
2023-04-10T01:33:26.664Z,102577.74
2023-04-10T01:34:39.533Z,102578.15
2023-04-10T01:35:47.670Z,102577.23
2023-04-10T01:36:56.606Z,102578.68
2023-04-10T01:38:02.272Z,102582.55
2023-04-10T01:39:06.900Z,102584.80
2023-04-10T01:40:14.422Z,102582.25
2023-04-10T01:41:20.021Z,102582.48
2023-04-10T01:42:25.509Z,102581.52
2023-04-10T01:43:31.476Z,102582.83
2023-04-10T01:44:38.284Z,102581.33
2023-04-10T01:45:43.764Z,102581.11
2023-04-10T01:46:49.783Z,102581.19
2023-04-10T01:47:53.519Z,102577.06
2023-04-10T01:48:59.157Z,102580.02
2023-04-10T01:50:04.100Z,102577.66
2023-04-10T01:51:11.307Z,102578.32
2023-04-10T01:52:15.876Z,102585.02
2023-04-10T01:53:24.617Z,102583.57
2023-04-10T01:54:28.365Z,102582.65
2023-04-10T01:55:32.234Z,102584.39
2023-04-10T01:56:38.946Z,102579.69
2023-04-10T01:57:42.088Z,102578.04
2023-04-10T01:58:45.567Z,102579.05
2023-04-10T01:59:50.828Z,102578.33
2023-04-10T02:00:53.813Z,102577.13
2023-04-10T02:02:01.426Z,102577.10
2023-04-10T02:03:04.712Z,102576.27
2023-04-10T02:04:07.840Z,102577.63
2023-04-10T02:05:11.194Z,102576.88
2023-04-10T02:06:41.623Z,102579.39
2023-04-10T02:07:57.640Z,102577.41
2023-04-10T02:09:12.598Z,102581.42
2023-04-10T02:10:22.595Z,102578.70
2023-04-10T02:11:51.671Z,102579.98
2023-04-10T02:13:05.553Z,102577.69
2023-04-10T02:14:12.055Z,102574.76
2023-04-10T02:15:21.593Z,102579.64
2023-04-10T02:16:25.436Z,102580.92
2023-04-10T02:17:31.283Z,102583.81
2023-04-10T02:18:35.745Z,102582.86
2023-04-10T02:19:39.941Z,102578.86
2023-04-10T02:20:43.336Z,102583.70
2023-04-10T02:21:49.595Z,102579.84
2023-04-10T02:22:54.322Z,102580.66
2023-04-10T02:23:58.700Z,102580.30
2023-04-10T02:25:04.805Z,102579.17
2023-04-10T02:26:11.066Z,102576.81
2023-04-10T02:27:14.146Z,102575.09
2023-04-10T02:28:16.898Z,102576.30
2023-04-10T02:29:20.318Z,102575.42
2023-04-10T02:30:24.777Z,102575.70
2023-04-10T02:31:28.022Z,102578.95
2023-04-10T02:32:33.526Z,102578.40
2023-04-10T02:33:36.679Z,102574.83
2023-04-10T02:34:39.899Z,102576.20
2023-04-10T02:35:42.955Z,102575.17
2023-04-10T02:36:46.086Z,102573.71
2023-04-10T02:37:50.814Z,102573.89
2023-04-10T02:38:53.897Z,102578.02
2023-04-10T02:39:58.636Z,102574.02
2023-04-10T02:41:02.969Z,102581.54
2023-04-10T02:42:05.792Z,102580.41
2023-04-10T02:43:08.658Z,102584.15
2023-04-10T02:44:11.614Z,102583.02
2023-04-10T02:45:14.641Z,102583.27
2023-04-10T02:46:18.671Z,102584.54
2023-04-10T02:47:22.093Z,102586.30
2023-04-10T02:48:25.140Z,102588.81
2023-04-10T02:49:31.678Z,102586.73
2023-04-10T02:50:35.470Z,102586.35
2023-04-10T02:51:38.461Z,102584.98
2023-04-10T02:52:42.005Z,102586.63
2023-04-10T02:53:44.946Z,102587.09
2023-04-10T02:54:59.750Z,102586.00
2023-04-10T02:56:03.694Z,102585.35
2023-04-10T02:57:06.668Z,102581.77
2023-04-10T02:58:09.713Z,102584.45
2023-04-10T02:59:13.391Z,102583.36
2023-04-10T03:00:16.993Z,102585.83
2023-04-10T03:01:40.926Z,102584.61
2023-04-10T03:02:44.191Z,102582.85
2023-04-10T03:03:51.411Z,102583.47
2023-04-10T03:05:02.187Z,102582.27
2023-04-10T03:06:06.898Z,102585.33
2023-04-10T03:07:11.064Z,102583.05
2023-04-10T03:08:14.414Z,102586.81
2023-04-10T03:09:17.320Z,102589.13
2023-04-10T03:10:20.280Z,102586.05
2023-04-10T03:11:23.658Z,102584.26
2023-04-10T03:12:26.504Z,102582.92
2023-04-10T03:13:29.422Z,102585.79
2023-04-10T03:14:32.394Z,102587.13
2023-04-10T03:15:35.523Z,102585.77
2023-04-10T03:16:38.538Z,102585.10
2023-04-10T03:17:41.729Z,102586.14
2023-04-10T03:18:45.586Z,102582.06
2023-04-10T03:19:48.373Z,102583.98
2023-04-10T03:20:51.652Z,102583.91
2023-04-10T03:21:55.810Z,102581.62
2023-04-10T03:23:01.563Z,102581.96
2023-04-10T03:24:04.639Z,102582.63
2023-04-10T03:25:08.263Z,102580.58
2023-04-10T03:26:11.602Z,102581.09
2023-04-10T03:27:14.825Z,102578.43
2023-04-10T03:28:17.886Z,102578.02
2023-04-10T03:29:20.891Z,102575.40
2023-04-10T03:30:23.740Z,102578.58
2023-04-10T03:31:27.233Z,102579.58
2023-04-10T03:32:32.177Z,102577.67
2023-04-10T03:33:36.075Z,102579.38
2023-04-10T03:34:38.961Z,102574.08
2023-04-10T03:35:42.243Z,102578.21
2023-04-10T03:36:45.372Z,102579.33
2023-04-10T03:37:48.261Z,102578.98
2023-04-10T03:38:52.918Z,102580.35
2023-04-10T03:39:56.010Z,102578.67
2023-04-10T03:40:59.162Z,102580.08
2023-04-10T03:42:03.937Z,102578.95
2023-04-10T03:43:06.827Z,102578.92
2023-04-10T03:44:09.931Z,102577.46
2023-04-10T03:45:13.056Z,102576.73
2023-04-10T03:46:16.375Z,102577.81
2023-04-10T03:47:20.214Z,102573.67
2023-04-10T03:48:28.483Z,102575.48
2023-04-10T03:49:31.580Z,102577.20
2023-04-10T03:50:39.617Z,102577.14
2023-04-10T03:51:42.437Z,102573.23
2023-04-10T03:52:45.367Z,102576.21
2023-04-10T03:53:51.481Z,102576.83
2023-04-10T03:54:54.983Z,102577.46
2023-04-10T03:56:01.213Z,102579.00
2023-04-10T03:57:04.515Z,102579.64
2023-04-10T03:58:07.455Z,102578.42
2023-04-10T03:59:11.509Z,102581.61
2023-04-10T04:00:16.960Z,102580.42
2023-04-10T04:01:26.156Z,102580.60
2023-04-10T04:02:38.333Z,102580.49
2023-04-10T04:03:42.068Z,102576.42
2023-04-10T04:05:04.382Z,102579.89
2023-04-10T04:06:38.304Z,102581.13
2023-04-10T04:07:59.124Z,102582.21
2023-04-10T04:09:13.852Z,102582.64
2023-04-10T04:10:40.024Z,102584.30
2023-04-10T04:12:00.221Z,102588.83
2023-04-10T04:13:29.065Z,102588.68
2023-04-10T04:14:45.336Z,102587.79
2023-04-10T04:16:00.532Z,102590.45
2023-04-10T04:17:18.452Z,102591.48
2023-04-10T04:18:39.705Z,102590.73
2023-04-10T04:19:54.193Z,102595.25
2023-04-10T04:21:12.847Z,102594.51
2023-04-10T04:22:47.595Z,102599.64
2023-04-10T04:23:50.458Z,102598.23
2023-04-10T04:25:11.570Z,102602.85
2023-04-10T04:26:33.666Z,102598.34
2023-04-10T04:27:49.758Z,102603.94
2023-04-10T04:29:18.961Z,102603.98
2023-04-10T04:30:38.454Z,102602.64
2023-04-10T04:31:48.324Z,102603.55
2023-04-10T04:33:10.075Z,102600.30
2023-04-10T04:34:32.283Z,102601.95
2023-04-10T04:35:58.216Z,102605.73
2023-04-10T04:37:15.925Z,102605.08
2023-04-10T04:38:39.029Z,102604.04
2023-04-10T04:39:48.092Z,102605.09
2023-04-10T04:41:09.409Z,102604.67
2023-04-10T04:42:31.058Z,102601.54
2023-04-10T04:44:04.869Z,102604.17
2023-04-10T04:45:34.053Z,102605.16
2023-04-10T04:46:55.541Z,102604.90
2023-04-10T04:48:04.624Z,102605.55
2023-04-10T04:49:46.200Z,102607.34
2023-04-10T04:50:49.121Z,102603.73
2023-04-10T04:52:12.072Z,102604.89
2023-04-10T04:53:18.498Z,102608.79
2023-04-10T04:54:40.171Z,102608.95
2023-04-10T04:55:58.398Z,102608.71
2023-04-10T04:57:14.526Z,102614.44
2023-04-10T04:58:40.200Z,102616.89
2023-04-10T04:59:52.386Z,102619.02
2023-04-10T05:01:13.877Z,102623.15
2023-04-10T05:02:31.015Z,102622.27
2023-04-10T05:03:57.484Z,102626.59
2023-04-10T05:05:30.352Z,102625.11
2023-04-10T05:06:53.480Z,102624.91
2023-04-10T05:08:26.417Z,102623.16
2023-04-10T05:10:08.688Z,102622.35
2023-04-10T05:11:58.997Z,102623.42
2023-04-10T05:13:22.787Z,102621.91
2023-04-10T05:14:45.348Z,102621.15
2023-04-10T05:16:08.840Z,102624.72
2023-04-10T05:17:17.393Z,102620.60
2023-04-10T05:18:39.761Z,102622.73
2023-04-10T05:19:54.675Z,102624.25
2023-04-10T05:21:21.062Z,102622.80
2023-04-10T05:22:42.336Z,102624.23
2023-04-10T05:24:10.159Z,102626.16
2023-04-10T05:25:24.587Z,102626.61
2023-04-10T05:26:42.559Z,102628.08
2023-04-10T05:28:01.346Z,102626.05
2023-04-10T05:29:23.519Z,102625.66
2023-04-10T05:30:52.293Z,102626.37
2023-04-10T05:32:24.248Z,102628.73
2023-04-10T05:33:37.493Z,102627.65
2023-04-10T05:34:58.468Z,102624.45
2023-04-10T05:36:11.232Z,102628.75
2023-04-10T05:37:28.916Z,102625.20
2023-04-10T05:38:36.357Z,102627.56
2023-04-10T05:39:50.693Z,102626.67
2023-04-10T05:41:16.648Z,102622.61
2023-04-10T05:42:35.469Z,102623.47
2023-04-10T05:44:00.568Z,102623.65
2023-04-10T05:45:11.163Z,102619.70
2023-04-10T05:46:34.497Z,102624.73
2023-04-10T05:47:58.888Z,102626.32
2023-04-10T05:49:24.669Z,102625.94
2023-04-10T05:50:37.317Z,102623.16
2023-04-10T05:51:50.560Z,102623.16
2023-04-10T05:53:05.703Z,102623.81
2023-04-10T05:54:20.512Z,102622.55
2023-04-10T05:55:56.711Z,102619.16
2023-04-10T05:57:18.285Z,102623.19
2023-04-10T05:58:21.093Z,102619.98
2023-04-10T05:59:46.720Z,102621.40
2023-04-10T06:01:15.703Z,102619.34
2023-04-10T06:02:28.986Z,102620.80
2023-04-10T06:03:32.272Z,102621.88
2023-04-10T06:04:37.229Z,102620.46
2023-04-10T06:05:41.564Z,102622.11
2023-04-10T06:06:44.510Z,102620.05
2023-04-10T06:07:47.401Z,102620.54
2023-04-10T06:08:50.974Z,102618.18
2023-04-10T06:09:53.797Z,102619.89
2023-04-10T06:10:57.277Z,102620.02
2023-04-10T06:12:01.403Z,102615.37
2023-04-10T06:13:04.613Z,102622.95
2023-04-10T06:14:07.578Z,102619.54
2023-04-10T06:15:17.017Z,102621.62
2023-04-10T06:16:20.553Z,102621.98
2023-04-10T06:17:25.842Z,102622.68
2023-04-10T06:18:29.421Z,102622.30
2023-04-10T06:19:32.287Z,102623.30
2023-04-10T06:20:35.158Z,102624.05
2023-04-10T06:21:37.981Z,102626.89
2023-04-10T06:22:41.081Z,102624.48
2023-04-10T06:23:44.163Z,102624.31
2023-04-10T06:24:47.361Z,102627.34
2023-04-10T06:25:50.330Z,102629.41
2023-04-10T06:26:54.288Z,102626.42
2023-04-10T06:27:57.404Z,102626.14
2023-04-10T06:29:01.270Z,102626.17
2023-04-10T06:30:04.348Z,102626.77
2023-04-10T06:31:07.524Z,102627.02
2023-04-10T06:32:11.839Z,102622.25
2023-04-10T06:33:16.404Z,102624.38
2023-04-10T06:34:20.558Z,102628.38
2023-04-10T06:35:32.792Z,102626.00
2023-04-10T06:36:36.093Z,102626.41
2023-04-10T06:37:41.122Z,102628.85
2023-04-10T06:38:44.731Z,102626.15
2023-04-10T06:39:48.063Z,102625.80
2023-04-10T06:40:50.867Z,102626.01
2023-04-10T06:41:53.806Z,102628.59
2023-04-10T06:43:05.152Z,102626.66
2023-04-10T06:44:14.083Z,102623.71
2023-04-10T06:45:16.922Z,102625.96
2023-04-10T06:46:20.572Z,102625.30
2023-04-10T06:47:23.876Z,102621.84
2023-04-10T06:48:27.081Z,102623.98
2023-04-10T06:49:29.945Z,102624.84
2023-04-10T06:50:33.541Z,102623.17
2023-04-10T06:51:36.577Z,102624.02
2023-04-10T06:52:39.575Z,102623.11
2023-04-10T06:53:42.524Z,102621.34
2023-04-10T06:54:45.432Z,102621.71
2023-04-10T06:55:48.943Z,102625.27
2023-04-10T06:56:51.799Z,102626.71
2023-04-10T06:57:56.174Z,102624.42
2023-04-10T06:58:59.204Z,102619.33
2023-04-10T07:00:02.180Z,102621.23
2023-04-10T07:01:05.605Z,102620.41
2023-04-10T07:02:08.569Z,102622.36
2023-04-10T07:03:11.413Z,102620.52
2023-04-10T07:04:14.674Z,102620.77
2023-04-10T07:05:17.817Z,102619.77
2023-04-10T07:06:21.147Z,102623.77
2023-04-10T07:07:24.229Z,102624.73
2023-04-10T07:08:27.097Z,102622.09
2023-04-10T07:09:30.814Z,102622.52
2023-04-10T07:10:33.809Z,102624.52
2023-04-10T07:11:36.842Z,102622.52
2023-04-10T07:12:40.007Z,102621.82
2023-04-10T07:13:42.940Z,102622.26
2023-04-10T07:14:46.239Z,102622.84
2023-04-10T07:15:49.264Z,102620.95
2023-04-10T07:16:54.137Z,102622.90
2023-04-10T07:17:57.086Z,102621.50
2023-04-10T07:19:00.020Z,102625.23
2023-04-10T07:20:03.455Z,102625.17
2023-04-10T07:21:13.205Z,102620.50
2023-04-10T07:22:16.885Z,102620.44
2023-04-10T07:23:20.526Z,102621.23
2023-04-10T07:24:23.656Z,102621.13
2023-04-10T07:25:26.425Z,102615.53
2023-04-10T07:26:29.283Z,102618.74
2023-04-10T07:27:32.322Z,102617.73
2023-04-10T07:28:35.240Z,102615.50
2023-04-10T07:29:38.088Z,102611.55
2023-04-10T07:30:41.519Z,102612.34
2023-04-10T07:31:44.750Z,102613.19
2023-04-10T07:32:48.517Z,102611.44
2023-04-10T07:33:51.953Z,102614.61
2023-04-10T07:34:54.850Z,102614.98
2023-04-10T07:35:57.839Z,102616.77
2023-04-10T07:37:00.877Z,102617.60
2023-04-10T07:38:04.753Z,102618.52
2023-04-10T07:39:07.676Z,102616.92
2023-04-10T07:40:11.278Z,102616.28
2023-04-10T07:41:14.448Z,102619.07
2023-04-10T07:42:17.345Z,102619.45
2023-04-10T07:43:21.561Z,102613.81
2023-04-10T07:44:26.813Z,102615.02
2023-04-10T07:45:29.788Z,102616.35
2023-04-10T07:46:32.733Z,102618.74
2023-04-10T07:47:35.902Z,102616.95
2023-04-10T07:48:38.929Z,102622.49
2023-04-10T07:49:42.325Z,102620.09
2023-04-10T07:50:45.376Z,102621.40
2023-04-10T07:51:48.736Z,102616.87
2023-04-10T07:52:51.648Z,102617.35
2023-04-10T07:53:54.538Z,102614.09
2023-04-10T07:54:57.450Z,102613.86
2023-04-10T07:56:00.246Z,102611.45
2023-04-10T07:57:03.029Z,102611.80
2023-04-10T07:58:06.472Z,102608.50
2023-04-10T07:59:09.503Z,102610.79
2023-04-10T08:00:13.199Z,102609.43
2023-04-10T08:01:15.959Z,102610.20
2023-04-10T08:02:18.975Z,102608.11
2023-04-10T08:03:22.967Z,102608.08
2023-04-10T08:04:26.865Z,102606.36
2023-04-10T08:05:29.888Z,102604.88
2023-04-10T08:06:32.846Z,102603.60
2023-04-10T08:07:36.471Z,102600.25
2023-04-10T08:08:41.205Z,102598.95
2023-04-10T08:09:44.375Z,102595.73
2023-04-10T08:10:47.206Z,102594.40
2023-04-10T08:11:50.190Z,102595.98
2023-04-10T08:12:53.089Z,102594.10
2023-04-10T08:13:58.298Z,102600.04
2023-04-10T08:15:02.024Z,102595.81
2023-04-10T08:16:05.232Z,102596.02
2023-04-10T08:17:14.610Z,102598.63
2023-04-10T08:18:17.934Z,102599.27
2023-04-10T08:19:20.858Z,102601.79
2023-04-10T08:20:24.088Z,102602.69
2023-04-10T08:21:29.937Z,102602.02
2023-04-10T08:22:32.946Z,102603.02
2023-04-10T08:23:35.948Z,102603.86
2023-04-10T08:24:38.947Z,102599.88
2023-04-10T08:25:41.911Z,102605.40
2023-04-10T08:26:44.717Z,102602.16
2023-04-10T08:27:47.587Z,102602.77
2023-04-10T08:28:52.730Z,102600.77
2023-04-10T08:29:56.717Z,102601.28
2023-04-10T08:30:59.874Z,102601.82
2023-04-10T08:32:02.849Z,102598.98
2023-04-10T08:33:05.887Z,102595.61
2023-04-10T08:34:08.960Z,102595.98
2023-04-10T08:35:11.894Z,102597.73
2023-04-10T08:36:17.675Z,102599.75
2023-04-10T08:37:21.947Z,102599.23
2023-04-10T08:38:27.651Z,102597.51
2023-04-10T08:39:30.712Z,102598.67
2023-04-10T08:40:37.572Z,102599.31
2023-04-10T08:41:41.702Z,102599.90
2023-04-10T08:42:44.646Z,102597.12
2023-04-10T08:43:49.588Z,102595.39
2023-04-10T08:44:53.119Z,102595.68
2023-04-10T08:45:56.335Z,102595.77
2023-04-10T08:47:01.391Z,102594.50
2023-04-10T08:48:07.893Z,102596.89
2023-04-10T08:49:39.100Z,102596.50
2023-04-10T08:50:43.691Z,102591.09
2023-04-10T08:51:52.005Z,102591.90
2023-04-10T08:53:00.327Z,102590.33
2023-04-10T08:54:10.777Z,102586.03
2023-04-10T08:55:14.823Z,102583.25
2023-04-10T08:56:18.753Z,102586.42
2023-04-10T08:57:24.947Z,102582.25
2023-04-10T08:58:28.804Z,102579.31
2023-04-10T08:59:31.934Z,102580.02
2023-04-10T09:00:38.654Z,102580.27
2023-04-10T09:01:42.041Z,102576.70
2023-04-10T09:02:45.507Z,102573.21
2023-04-10T09:03:48.993Z,102571.83
2023-04-10T09:04:56.302Z,102569.52
2023-04-10T09:06:04.219Z,102571.02
2023-04-10T09:07:07.067Z,102569.38
2023-04-10T09:08:12.234Z,102569.55
2023-04-10T09:09:15.485Z,102572.94
2023-04-10T09:10:18.370Z,102574.49
2023-04-10T09:11:21.491Z,102577.59
2023-04-10T09:12:24.357Z,102577.77
2023-04-10T09:13:41.962Z,102576.02
2023-04-10T09:14:45.087Z,102579.23
2023-04-10T09:16:00.621Z,102576.67
2023-04-10T09:17:17.205Z,102572.48
2023-04-10T09:18:20.164Z,102574.45
2023-04-10T09:19:30.669Z,102572.80
2023-04-10T09:20:34.458Z,102574.75
2023-04-10T09:21:37.220Z,102573.64
2023-04-10T09:22:40.109Z,102575.26
2023-04-10T09:23:44.890Z,102573.98
2023-04-10T09:24:48.298Z,102573.77
2023-04-10T09:25:51.664Z,102573.80
2023-04-10T09:26:55.380Z,102573.49
2023-04-10T09:28:03.828Z,102574.51
2023-04-10T09:29:07.813Z,102571.67
2023-04-10T09:30:11.096Z,102566.63
2023-04-10T09:31:35.658Z,102566.34
2023-04-10T09:32:49.033Z,102561.11
2023-04-10T09:34:07.808Z,102560.95
2023-04-10T09:35:12.633Z,102560.37
2023-04-10T09:36:16.122Z,102558.16
2023-04-10T09:37:21.007Z,102558.02
2023-04-10T09:38:23.977Z,102557.73
2023-04-10T09:39:41.137Z,102555.41
2023-04-10T09:40:45.655Z,102555.63
2023-04-10T09:41:53.102Z,102557.69
2023-04-10T09:42:57.289Z,102555.81
2023-04-10T09:44:12.028Z,102551.52
2023-04-10T09:45:16.652Z,102552.79
2023-04-10T09:46:28.811Z,102551.59
2023-04-10T09:47:33.280Z,102554.41
2023-04-10T09:48:36.438Z,102552.41
2023-04-10T09:49:52.579Z,102553.95
2023-04-10T09:50:55.779Z,102553.61
2023-04-10T09:51:58.693Z,102554.04
2023-04-10T09:53:01.561Z,102550.83
2023-04-10T09:54:04.644Z,102554.65
2023-04-10T09:55:08.656Z,102553.40
2023-04-10T09:56:13.110Z,102552.77
2023-04-10T09:57:20.252Z,102552.06
2023-04-10T09:58:26.549Z,102552.89
2023-04-10T09:59:29.750Z,102555.95
2023-04-10T10:00:44.699Z,102550.27
2023-04-10T10:01:47.645Z,102550.40
2023-04-10T10:02:52.408Z,102549.48
2023-04-10T10:03:58.990Z,102551.85
2023-04-10T10:05:05.602Z,102551.95
2023-04-10T10:06:09.816Z,102549.70
2023-04-10T10:07:18.553Z,102548.67
2023-04-10T10:08:22.428Z,102550.12
2023-04-10T10:09:27.688Z,102548.80
2023-04-10T10:10:33.026Z,102545.98
2023-04-10T10:11:36.490Z,102543.35
2023-04-10T10:12:59.524Z,102546.14
2023-04-10T10:14:06.540Z,102539.23
2023-04-10T10:15:19.786Z,102540.19
2023-04-10T10:16:37.410Z,102539.08
2023-04-10T10:17:55.864Z,102539.83
2023-04-10T10:19:22.153Z,102541.67
2023-04-10T10:20:26.541Z,102542.55
2023-04-10T10:21:30.700Z,102537.74
2023-04-10T10:22:35.238Z,102537.77
2023-04-10T10:23:38.720Z,102534.41
2023-04-10T10:24:47.569Z,102534.96
2023-04-10T10:25:51.431Z,102532.80
2023-04-10T10:26:57.359Z,102533.77
2023-04-10T10:28:04.129Z,102529.71
2023-04-10T10:29:11.332Z,102528.86
2023-04-10T10:30:28.358Z,102527.65
2023-04-10T10:31:37.605Z,102522.98
2023-04-10T10:32:41.468Z,102517.53
2023-04-10T10:33:47.160Z,102520.48
2023-04-10T10:34:53.026Z,102517.21
2023-04-10T10:36:00.236Z,102518.14
2023-04-10T10:37:04.730Z,102519.22
2023-04-10T10:38:08.362Z,102517.60
2023-04-10T10:39:42.436Z,102522.27
2023-04-10T10:40:54.845Z,102520.17
2023-04-10T10:42:48.649Z,102520.67
2023-04-10T10:44:04.846Z,102518.36
2023-04-10T10:45:17.570Z,102514.87
2023-04-10T10:46:47.546Z,102518.19
2023-04-10T10:47:54.977Z,102516.10
2023-04-10T10:48:59.470Z,102517.17
2023-04-10T10:50:03.946Z,102516.27
2023-04-10T10:51:07.159Z,102514.41
2023-04-10T10:52:10.006Z,102513.41
2023-04-10T10:53:31.612Z,102509.98
2023-04-10T10:54:36.603Z,102509.89
2023-04-10T10:55:41.881Z,102508.95
2023-04-10T10:56:44.672Z,102503.19
2023-04-10T10:57:48.481Z,102502.52
2023-04-10T10:58:54.496Z,102502.61
2023-04-10T10:59:57.720Z,102501.14
2023-04-10T11:01:00.518Z,102499.04
2023-04-10T11:02:16.947Z,102501.33
2023-04-10T11:03:20.058Z,102497.08
2023-04-10T11:04:43.720Z,102496.02
2023-04-10T11:05:57.307Z,102493.10
2023-04-10T11:07:00.222Z,102492.79
2023-04-10T11:08:03.368Z,102495.30
2023-04-10T11:09:06.450Z,102493.10
2023-04-10T11:10:09.497Z,102495.56
2023-04-10T11:11:16.051Z,102495.83
2023-04-10T11:12:25.585Z,102495.99
2023-04-10T11:13:29.025Z,102493.61
2023-04-10T11:14:33.705Z,102491.51
2023-04-10T11:15:37.150Z,102491.55
2023-04-10T11:16:41.583Z,102492.36
2023-04-10T11:17:52.405Z,102487.96
2023-04-10T11:19:06.322Z,102489.80
2023-04-10T11:20:27.512Z,102489.16
2023-04-10T11:21:31.596Z,102484.16
2023-04-10T11:23:06.628Z,102484.06
2023-04-10T11:24:09.981Z,102483.23
2023-04-10T11:25:12.816Z,102481.75
2023-04-10T11:26:42.801Z,102477.65
2023-04-10T11:27:49.229Z,102478.44
2023-04-10T11:28:52.312Z,102477.51
2023-04-10T11:29:56.197Z,102477.77
2023-04-10T11:31:20.035Z,102478.19
2023-04-10T11:32:23.042Z,102472.42
2023-04-10T11:33:26.019Z,102469.70
2023-04-10T11:34:31.015Z,102468.56
2023-04-10T11:35:34.177Z,102468.73
2023-04-10T11:36:43.128Z,102471.65
2023-04-10T11:37:46.295Z,102471.38
2023-04-10T11:38:59.036Z,102467.08
2023-04-10T11:40:06.457Z,102465.48
2023-04-10T11:41:09.664Z,102470.55
2023-04-10T11:42:12.948Z,102468.98
2023-04-10T11:43:16.037Z,102466.19
2023-04-10T11:44:39.658Z,102467.68
2023-04-10T11:45:42.771Z,102464.02
2023-04-10T11:46:47.488Z,102463.98
2023-04-10T11:47:52.252Z,102466.56
2023-04-10T11:49:03.582Z,102465.79
2023-04-10T11:50:08.188Z,102460.36
2023-04-10T11:51:13.469Z,102460.75
2023-04-10T11:52:25.815Z,102457.93
2023-04-10T11:53:30.336Z,102455.41
2023-04-10T11:54:33.271Z,102456.28
2023-04-10T11:55:39.815Z,102457.49
2023-04-10T11:56:45.839Z,102453.11
2023-04-10T11:57:49.026Z,102446.77
2023-04-10T11:58:54.434Z,102448.73
2023-04-10T11:59:59.134Z,102446.40
2023-04-10T12:01:05.867Z,102439.54
2023-04-10T12:02:11.803Z,102439.20
2023-04-10T12:03:14.851Z,102440.08
2023-04-10T12:04:19.730Z,102438.65
2023-04-10T12:05:22.734Z,102437.08
2023-04-10T12:06:26.113Z,102435.52
2023-04-10T12:07:30.820Z,102434.33
2023-04-10T12:08:38.019Z,102435.30
2023-04-10T12:09:40.966Z,102433.58
2023-04-10T12:10:47.494Z,102430.90
2023-04-10T12:12:03.738Z,102430.92
2023-04-10T12:13:07.675Z,102434.05
2023-04-10T12:14:10.791Z,102431.84
2023-04-10T12:15:30.814Z,102432.14
2023-04-10T12:16:33.966Z,102428.91
2023-04-10T12:17:37.893Z,102427.80
2023-04-10T12:18:41.233Z,102427.88
2023-04-10T12:19:44.329Z,102428.85
2023-04-10T12:20:48.061Z,102426.21
2023-04-10T12:21:51.631Z,102424.25
2023-04-10T12:22:56.745Z,102424.65
2023-04-10T12:23:59.632Z,102423.80
2023-04-10T12:25:02.621Z,102427.13
2023-04-10T12:26:16.465Z,102422.40
2023-04-10T12:27:28.683Z,102422.67
2023-04-10T12:28:32.053Z,102424.42
2023-04-10T12:29:34.908Z,102419.72
2023-04-10T12:30:37.882Z,102417.59
2023-04-10T12:31:41.073Z,102416.04
2023-04-10T12:32:52.505Z,102411.95
2023-04-10T12:33:57.985Z,102410.56
2023-04-10T12:35:03.627Z,102411.55
2023-04-10T12:36:06.806Z,102407.59
2023-04-10T12:37:12.523Z,102408.23
2023-04-10T12:38:15.784Z,102403.09
2023-04-10T12:39:24.237Z,102404.58
2023-04-10T12:40:27.655Z,102399.19
2023-04-10T12:41:32.522Z,102398.23
2023-04-10T12:42:41.081Z,102398.99
2023-04-10T12:43:44.886Z,102397.23
2023-04-10T12:44:52.733Z,102397.45
2023-04-10T12:45:56.369Z,102394.67
2023-04-10T12:47:01.736Z,102392.24
2023-04-10T12:48:04.730Z,102391.11
2023-04-10T12:49:15.498Z,102385.34
2023-04-10T12:50:21.041Z,102383.97
2023-04-10T12:51:47.161Z,102381.73
2023-04-10T12:53:11.801Z,102383.02
2023-04-10T12:54:41.200Z,102378.07
2023-04-10T12:56:01.216Z,102379.83
2023-04-10T12:57:04.628Z,102374.09